createdAt,value
2022-11-04T00:05:36.036Z,9.41
2022-11-04T00:16:00.743Z,9.32
2022-11-04T00:26:25.381Z,9.33
2022-11-04T00:36:31.665Z,9.29
2022-11-04T00:46:37.939Z,9.21
2022-11-04T00:56:44.703Z,9.14
2022-11-04T01:06:51.003Z,9.24
2022-11-04T01:16:57.307Z,9.29
2022-11-04T01:27:03.573Z,9.38
2022-11-04T01:37:09.836Z,9.42
2022-11-04T01:47:18.929Z,9.48
2022-11-04T01:57:34.677Z,9.52
2022-11-04T02:07:40.959Z,9.55
2022-11-04T02:18:05.820Z,9.51
2022-11-04T02:28:28.932Z,9.56
2022-11-04T02:38:56.761Z,9.56
2022-11-04T02:49:16.155Z,9.55
2022-11-04T02:59:34.259Z,9.52
2022-11-04T03:09:43.344Z,9.52
2022-11-04T03:19:58.225Z,9.61
2022-11-04T03:30:07.350Z,9.58
2022-11-04T03:40:14.067Z,9.54
2022-11-04T03:50:30.552Z,9.29
2022-11-04T04:00:40.960Z,9.04
2022-11-04T04:11:00.903Z,8.79
2022-11-04T04:21:10.295Z,8.64
2022-11-04T04:31:40.361Z,8.24
2022-11-04T04:42:07.712Z,8.10
2022-11-04T04:52:13.013Z,8.14
2022-11-04T05:02:19.368Z,8.19
2022-11-04T05:12:26.250Z,7.98
2022-11-04T05:22:32.569Z,7.79
2022-11-04T05:32:38.867Z,7.85
2022-11-04T05:42:45.164Z,7.81
2022-11-04T05:52:51.444Z,8.10
2022-11-04T06:02:58.652Z,8.26
2022-11-04T06:13:05.045Z,8.34
2022-11-04T06:23:11.308Z,8.65
2022-11-04T06:33:17.607Z,8.77
2022-11-04T06:43:23.864Z,8.85
2022-11-04T06:53:31.075Z,8.92
2022-11-04T07:03:37.347Z,9.15
2022-11-04T07:13:43.612Z,9.17
2022-11-04T07:23:49.896Z,9.37
2022-11-04T07:33:56.168Z,9.47
2022-11-04T07:44:06.479Z,9.76
2022-11-04T07:54:12.785Z,9.98
2022-11-04T08:04:19.098Z,10.29
2022-11-04T08:14:25.470Z,10.37
2022-11-04T08:24:31.806Z,10.45
2022-11-04T08:34:38.417Z,10.59
2022-11-04T08:44:44.771Z,10.82
2022-11-04T08:54:56.192Z,11.03
2022-11-04T09:05:03.588Z,11.22
2022-11-04T09:15:10.278Z,11.31
2022-11-04T09:25:16.535Z,11.53
2022-11-04T09:35:22.856Z,11.78
2022-11-04T09:45:31.265Z,12.13
2022-11-04T09:56:02.891Z,12.44
2022-11-04T10:06:57.485Z,12.90
2022-11-04T10:17:07.660Z,13.21
2022-11-04T10:27:18.783Z,13.65
2022-11-04T10:37:26.802Z,14.11
2022-11-04T10:47:44.444Z,14.44
2022-11-04T10:57:50.737Z,14.87
2022-11-04T11:07:59.150Z,15.15
2022-11-04T11:18:18.303Z,15.68
2022-11-04T11:28:26.130Z,15.62
2022-11-04T11:38:34.477Z,15.99
2022-11-04T11:48:44.088Z,16.18
2022-11-04T12:09:34.012Z,16.61
2022-11-04T12:20:13.306Z,16.78
2022-11-04T12:30:30.034Z,16.82
2022-11-04T12:40:47.699Z,16.86
2022-11-04T12:51:39.971Z,16.55
2022-11-04T13:02:11.768Z,16.13
2022-11-04T13:12:27.275Z,15.96
2022-11-04T13:22:35.910Z,15.83
2022-11-04T13:32:58.426Z,15.84
2022-11-04T13:43:40.428Z,15.93
2022-11-04T13:53:53.078Z,15.74
2022-11-04T14:04:16.623Z,15.41
2022-11-04T14:14:21.891Z,15.33
2022-11-04T14:24:29.327Z,15.12
2022-11-04T14:34:38.881Z,14.98
2022-11-04T14:44:49.840Z,15.01
2022-11-04T14:54:59.811Z,14.69
2022-11-04T15:05:06.324Z,14.53
2022-11-04T15:15:36.020Z,14.35
2022-11-04T15:25:47.451Z,14.29
2022-11-04T15:35:54.025Z,13.96
2022-11-04T15:46:00.421Z,13.78
2022-11-04T15:56:08.219Z,13.49
2022-11-04T16:06:14.876Z,13.46
2022-11-04T16:16:26.684Z,13.41
2022-11-04T16:26:39.182Z,13.22
2022-11-04T16:36:45.419Z,12.99
2022-11-04T16:46:51.694Z,12.94
2022-11-04T16:56:58.305Z,12.81
2022-11-04T17:07:04.740Z,12.93
2022-11-04T17:17:11.433Z,12.66
2022-11-04T17:27:18.091Z,12.60
2022-11-04T17:37:24.366Z,12.67
2022-11-04T17:47:30.680Z,12.47
2022-11-04T17:57:36.994Z,12.24
2022-11-04T18:07:43.416Z,12.16
2022-11-04T18:17:51.425Z,12.23
2022-11-04T18:27:57.728Z,12.18
2022-11-04T18:38:03.995Z,12.23
2022-11-04T18:48:10.559Z,12.23
2022-11-04T18:58:17.009Z,12.18
2022-11-04T19:08:23.377Z,12.02
2022-11-04T19:18:30.002Z,11.94
2022-11-04T19:28:47.729Z,11.93
2022-11-04T19:38:55.649Z,11.95
2022-11-04T19:49:02.313Z,12.07
2022-11-04T19:59:10.281Z,11.98
2022-11-04T20:09:16.875Z,12.11
2022-11-04T20:19:23.525Z,12.23
2022-11-04T20:29:29.989Z,12.17
2022-11-04T20:39:36.335Z,12.11
2022-11-04T20:49:42.929Z,12.28
2022-11-04T20:59:49.195Z,12.21
2022-11-04T21:09:55.664Z,12.27
2022-11-04T21:20:01.966Z,12.35
2022-11-04T21:30:08.597Z,12.40
2022-11-04T21:40:15.084Z,12.36
2022-11-04T21:50:21.408Z,12.38
2022-11-04T22:00:27.702Z,12.44
2022-11-04T22:10:33.983Z,12.41
2022-11-04T22:20:40.297Z,12.48
2022-11-04T22:30:46.610Z,12.24
2022-11-04T22:40:59.866Z,12.55
2022-11-04T22:51:06.776Z,12.44
2022-11-04T23:01:16.006Z,12.34
2022-11-04T23:11:43.918Z,12.29
2022-11-04T23:22:08.670Z,12.27
2022-11-04T23:32:14.919Z,12.16
2022-11-04T23:42:22.386Z,11.89
2022-11-04T23:52:47.207Z,11.62
